Forside
METAR-TAF:

METAR-TAF

Lufthavne :

Dakar, Senegal

Breddekreds: 14-44N, længdekreds: 017-30W, højde: 27 m

Aktuelle vejr

Denne rapport blev lavet for 40 minutter siden, kl. 16:00 UTC
Vind 6 kt fra nordnordøst
Temperatur 27°C
Fugtighed 74%
Tryk 1014 hPa
Sigt 10 km eller mere
ingen skyer under 1500m og ingen cumulonimbus

METAR: GOOY 161600Z 02006KT CAVOK 27/22 Q1014

Tid: 16:40 (16:40 UTC)

Vejrudsigter

Denne rapport blev lavet for 5 timer og 10 minutter siden, kl. 11:30 UTC
Foreløbig gælder fra 16 på 12 UTC til 17 på 18 UTC
Vind 10 kt fra nord
Sigt 10 km eller mere
Brudte skyer i en højde af 1300 ft

TAF: GOOY 161130Z 1612/1718 36010KT 9999 BKN013

Vejrobservationer og prognoser fra mere end 4000 lufthavne (METAR og TAF).

De gule og røde prikker repræsenterer de meteorologiske stationer.

Flyt musen over at se navnet på stationen.

Så klik over at se vejr observationer og prognoser.

At skifte det kort: Klik på de grønne knapper med et sort kors for at zoome ind; på den grønne knap med en bindestreg for at zoome ud; eller på de grønne pile for tilstødende kort.


METAR-TAF: